sensor_id;sensor_type;location;lat;lon;timestamp;pressure;altitude;pressure_sealevel;temperature;humidity
37238;BME280;23129;49.662;8.448;2023-09-08T00:00:24;100814.97;;;19.15;85.93
37238;BME280;23129;49.662;8.448;2023-09-08T00:02:53;100813.25;;;19.14;86.35
37238;BME280;23129;49.662;8.448;2023-09-08T00:05:23;100817.72;;;19.13;86.57
37238;BME280;23129;49.662;8.448;2023-09-08T00:07:51;100823.22;;;19.10;86.78
37238;BME280;23129;49.662;8.448;2023-09-08T00:10:20;100816.19;;;19.09;86.95
37238;BME280;23129;49.662;8.448;2023-09-08T00:12:49;100818.06;;;19.07;87.33
37238;BME280;23129;49.662;8.448;2023-09-08T00:15:17;100817.28;;;19.05;87.34
37238;BME280;23129;49.662;8.448;2023-09-08T00:17:46;100813.97;;;19.02;87.90
37238;BME280;23129;49.662;8.448;2023-09-08T00:20:15;100816.91;;;18.97;88.12
37238;BME280;23129;49.662;8.448;2023-09-08T00:22:45;100813.47;;;18.95;88.23
37238;BME280;23129;49.662;8.448;2023-09-08T00:25:14;100808.31;;;18.92;88.59
37238;BME280;23129;49.662;8.448;2023-09-08T00:27:43;100809.44;;;18.88;88.91
37238;BME280;23129;49.662;8.448;2023-09-08T00:30:12;100813.19;;;18.84;88.94
37238;BME280;23129;49.662;8.448;2023-09-08T00:32:41;100810.03;;;18.77;89.31
37238;BME280;23129;49.662;8.448;2023-09-08T00:35:11;100818.25;;;18.73;90.07
37238;BME280;23129;49.662;8.448;2023-09-08T00:37:41;100819.50;;;18.65;90.43
37238;BME280;23129;49.662;8.448;2023-09-08T00:40:11;100814.38;;;18.62;90.63
37238;BME280;23129;49.662;8.448;2023-09-08T00:42:41;100817.19;;;18.59;90.89
37238;BME280;23129;49.662;8.448;2023-09-08T00:45:09;100813.75;;;18.57;91.45
37238;BME280;23129;49.662;8.448;2023-09-08T00:47:39;100811.22;;;18.56;91.81
37238;BME280;23129;49.662;8.448;2023-09-08T00:50:08;100814.81;;;18.55;92.27
37238;BME280;23129;49.662;8.448;2023-09-08T00:52:37;100813.06;;;18.54;92.23
37238;BME280;23129;49.662;8.448;2023-09-08T00:55:07;100813.19;;;18.52;92.65
37238;BME280;23129;49.662;8.448;2023-09-08T00:57:37;100807.88;;;18.52;92.85
37238;BME280;23129;49.662;8.448;2023-09-08T01:00:07;100805.38;;;18.49;93.01
37238;BME280;23129;49.662;8.448;2023-09-08T01:02:35;100807.25;;;18.47;93.24
37238;BME280;23129;49.662;8.448;2023-09-08T01:05:05;100805.56;;;18.46;93.80
37238;BME280;23129;49.662;8.448;2023-09-08T01:07:34;100818.03;;;18.44;94.00
37238;BME280;23129;49.662;8.448;2023-09-08T01:10:04;100802.28;;;18.41;94.14
37238;BME280;23129;49.662;8.448;2023-09-08T01:12:35;100814.78;;;18.39;94.62
37238;BME280;23129;49.662;8.448;2023-09-08T01:15:05;100818.56;;;18.35;94.84
37238;BME280;23129;49.662;8.448;2023-09-08T01:17:35;100822.28;;;18.31;95.32
37238;BME280;23129;49.662;8.448;2023-09-08T01:20:09;100824.19;;;18.29;95.49
37238;BME280;23129;49.662;8.448;2023-09-08T01:22:45;100813.28;;;18.17;95.56
37238;BME280;23129;49.662;8.448;2023-09-08T01:25:21;100813.44;;;18.14;95.80
37238;BME280;23129;49.662;8.448;2023-09-08T01:27:52;100817.97;;;18.12;96.32
37238;BME280;23129;49.662;8.448;2023-09-08T01:30:23;100817.22;;;18.10;96.30
37238;BME280;23129;49.662;8.448;2023-09-08T01:32:52;100819.09;;;18.08;96.82
37238;BME280;23129;49.662;8.448;2023-09-08T01:35:22;100813.09;;;18.05;97.06
37238;BME280;23129;49.662;8.448;2023-09-08T01:37:51;100818.47;;;18.03;97.32
37238;BME280;23129;49.662;8.448;2023-09-08T01:40:21;100811.34;;;18.03;97.62
37238;BME280;23129;49.662;8.448;2023-09-08T01:42:51;100821.28;;;18.00;97.80
37238;BME280;23129;49.662;8.448;2023-09-08T01:45:20;100816.94;;;17.99;98.00
37238;BME280;23129;49.662;8.448;2023-09-08T01:47:48;100813.47;;;17.97;98.43
37238;BME280;23129;49.662;8.448;2023-09-08T01:50:17;100815.44;;;17.93;98.70
37238;BME280;23129;49.662;8.448;2023-09-08T01:52:49;100812.00;;;17.91;98.87
37238;BME280;23129;49.662;8.448;2023-09-08T01:55:18;100806.00;;;17.88;99.34
37238;BME280;23129;49.662;8.448;2023-09-08T01:57:49;100814.13;;;17.85;99.50
37238;BME280;23129;49.662;8.448;2023-09-08T02:00:18;100814.22;;;17.83;100.00
37238;BME280;23129;49.662;8.448;2023-09-08T02:02:47;100812.59;;;17.81;100.00
37238;BME280;23129;49.662;8.448;2023-09-08T02:05:15;100816.16;;;17.79;100.00
37238;BME280;23129;49.662;8.448;2023-09-08T02:07:44;100811.84;;;17.77;100.00
37238;BME280;23129;49.662;8.448;2023-09-08T02:10:13;100812.03;;;17.74;100.00
37238;BME280;23129;49.662;8.448;2023-09-08T02:12:42;100814.72;;;17.72;100.00
37238;BME280;23129;49.662;8.448;2023-09-08T02:15:12;100812.25;;;17.69;100.00
37238;BME280;23129;49.662;8.448;2023-09-08T02:17:41;100814.19;;;17.66;100.00
37238;BME280;23129;49.662;8.448;2023-09-08T02:20:11;100815.22;;;17.63;100.00
37238;BME280;23129;49.662;8.448;2023-09-08T02:22:39;100810.06;;;17.60;100.00
37238;BME280;23129;49.662;8.448;2023-09-08T02:25:09;100812.88;;;17.57;100.00
37238;BME280;23129;49.662;8.448;2023-09-08T02:27:39;100813.88;;;17.54;100.00
37238;BME280;23129;49.662;8.448;2023-09-08T02:30:09;100815.84;;;17.51;100.00
37238;BME280;23129;49.662;8.448;2023-09-08T02:32:39;100815.06;;;17.49;100.00
37238;BME280;23129;49.662;8.448;2023-09-08T02:35:11;100821.38;;;17.46;100.00
37238;BME280;23129;49.662;8.448;2023-09-08T02:37:40;100811.75;;;17.44;100.00
37238;BME280;23129;49.662;8.448;2023-09-08T02:40:09;100811.75;;;17.44;100.00
37238;BME280;23129;49.662;8.448;2023-09-08T02:42:39;100816.22;;;17.43;100.00
37238;BME280;23129;49.662;8.448;2023-09-08T02:45:09;100811.00;;;17.42;100.00
37238;BME280;23129;49.662;8.448;2023-09-08T02:47:39;100818.00;;;17.43;100.00
37238;BME280;23129;49.662;8.448;2023-09-08T02:50:09;100816.31;;;17.42;100.00
37238;BME280;23129;49.662;8.448;2023-09-08T02:52:38;100819.88;;;17.41;100.00
37238;BME280;23129;49.662;8.448;2023-09-08T02:55:07;100821.78;;;17.39;100.00
37238;BME280;23129;49.662;8.448;2023-09-08T02:57:36;100825.34;;;17.38;100.00
37238;BME280;23129;49.662;8.448;2023-09-08T03:00:06;100823.63;;;17.37;100.00
37238;BME280;23129;49.662;8.448;2023-09-08T03:02:35;100827.22;;;17.36;100.00
37238;BME280;23129;49.662;8.448;2023-09-08T03:05:06;100824.63;;;17.34;100.00
37238;BME280;23129;49.662;8.448;2023-09-08T03:07:36;100822.06;;;17.32;100.00
37238;BME280;23129;49.662;8.448;2023-09-08T03:10:07;100817.69;;;17.31;100.00
37238;BME280;23129;49.662;8.448;2023-09-08T03:12:36;100819.56;;;17.29;100.00
37238;BME280;23129;49.662;8.448;2023-09-08T03:15:06;100824.09;;;17.27;100.00
37238;BME280;23129;49.662;8.448;2023-09-08T03:17:35;100820.66;;;17.25;100.00
37238;BME280;23129;49.662;8.448;2023-09-08T03:20:07;100818.94;;;17.24;100.00
37238;BME280;23129;49.662;8.448;2023-09-08T03:22:38;100820.78;;;17.22;100.00
37238;BME280;23129;49.662;8.448;2023-09-08T03:25:07;100822.69;;;17.20;100.00
37238;BME280;23129;49.662;8.448;2023-09-08T03:27:37;100824.53;;;17.18;100.00
37238;BME280;23129;49.662;8.448;2023-09-08T03:30:06;100819.25;;;17.18;100.00
37238;BME280;23129;49.662;8.448;2023-09-08T03:32:36;100821.09;;;17.16;100.00
37238;BME280;23129;49.662;8.448;2023-09-08T03:35:07;100826.56;;;17.13;100.00
37238;BME280;23129;49.662;8.448;2023-09-08T03:37:36;100829.34;;;17.10;100.00
37238;BME280;23129;49.662;8.448;2023-09-08T03:40:06;100828.66;;;17.06;100.00
37238;BME280;23129;49.662;8.448;2023-09-08T03:42:36;100828.72;;;17.05;100.00
37238;BME280;23129;49.662;8.448;2023-09-08T03:45:05;100829.75;;;17.02;100.00
37238;BME280;23129;49.662;8.448;2023-09-08T03:47:35;100823.56;;;17.02;100.00
37238;BME280;23129;49.662;8.448;2023-09-08T03:50:06;100823.66;;;17.00;100.00
37238;BME280;23129;49.662;8.448;2023-09-08T03:52:35;100832.59;;;16.98;100.00
37238;BME280;23129;49.662;8.448;2023-09-08T03:55:04;100832.69;;;16.96;100.00
37238;BME280;23129;49.662;8.448;2023-09-08T03:57:33;100826.66;;;16.93;100.00
37238;BME280;23129;49.662;8.448;2023-09-08T04:00:02;100825.00;;;16.90;100.00
37238;BME280;23129;49.662;8.448;2023-09-08T04:02:40;100829.59;;;16.86;100.00
37238;BME280;23129;49.662;8.448;2023-09-08T04:05:11;100830.53;;;16.85;100.00
37238;BME280;23129;49.662;8.448;2023-09-08T04:07:40;100834.19;;;16.83;100.00
37238;BME280;23129;49.662;8.448;2023-09-08T04:10:09;100835.19;;;16.80;100.00
37238;BME280;23129;49.662;8.448;2023-09-08T04:12:39;100831.78;;;16.78;100.00
37238;BME280;23129;49.662;8.448;2023-09-08T04:15:09;100836.31;;;16.75;100.00
37238;BME280;23129;49.662;8.448;2023-09-08T04:17:38;100837.44;;;16.69;100.00
37238;BME280;23129;49.662;8.448;2023-09-08T04:20:08;100837.75;;;16.63;100.00
37238;BME280;23129;49.662;8.448;2023-09-08T04:22:38;100845.06;;;16.58;100.00
37238;BME280;23129;49.662;8.448;2023-09-08T04:25:07;100840.09;;;16.50;100.00
37238;BME280;23129;49.662;8.448;2023-09-08T04:27:35;100851.84;;;16.44;100.00
37238;BME280;23129;49.662;8.448;2023-09-08T04:30:06;100849.34;;;16.41;100.00
37238;BME280;23129;49.662;8.448;2023-09-08T04:32:35;100850.47;;;16.36;100.00
37238;BME280;23129;49.662;8.448;2023-09-08T04:35:06;100856.78;;;16.33;100.00
37238;BME280;23129;49.662;8.448;2023-09-08T04:37:36;100848.91;;;16.32;100.00
37238;BME280;23129;49.662;8.448;2023-09-08T04:40:07;100856.88;;;16.30;100.00
37238;BME280;23129;49.662;8.448;2023-09-08T04:42:37;100864.84;;;16.30;100.00
37238;BME280;23129;49.662;8.448;2023-09-08T04:45:07;100854.34;;;16.29;100.00
37238;BME280;23129;49.662;8.448;2023-09-08T04:47:37;100858.91;;;16.25;100.00
37238;BME280;23129;49.662;8.448;2023-09-08T04:50:07;100857.16;;;16.24;100.00
37238;BME280;23129;49.662;8.448;2023-09-08T04:52:38;100863.41;;;16.23;100.00
37238;BME280;23129;49.662;8.448;2023-09-08T04:55:08;100866.13;;;16.22;100.00
37238;BME280;23129;49.662;8.448;2023-09-08T04:57:37;100859.19;;;16.19;100.00
37238;BME280;23129;49.662;8.448;2023-09-08T05:00:07;100858.34;;;16.18;100.00
37238;BME280;23129;49.662;8.448;2023-09-08T05:02:35;100867.13;;;16.19;100.00
37238;BME280;23129;49.662;8.448;2023-09-08T05:05:06;100863.53;;;16.20;100.00
37238;BME280;23129;49.662;8.448;2023-09-08T05:07:34;100874.00;;;16.23;100.00
37238;BME280;23129;49.662;8.448;2023-09-08T05:10:05;100868.56;;;16.26;100.00
37238;BME280;23129;49.662;8.448;2023-09-08T05:12:36;100872.00;;;16.28;100.00
37238;BME280;23129;49.662;8.448;2023-09-08T05:15:05;100864.84;;;16.30;100.00
37238;BME280;23129;49.662;8.448;2023-09-08T05:17:45;100866.63;;;16.30;100.00
37238;BME280;23129;49.662;8.448;2023-09-08T05:20:15;100862.19;;;16.30;100.00
37238;BME280;23129;49.662;8.448;2023-09-08T05:22:43;100861.28;;;16.31;100.00
37238;BME280;23129;49.662;8.448;2023-09-08T05:25:14;100867.38;;;16.33;100.00
37238;BME280;23129;49.662;8.448;2023-09-08T05:27:43;100870.06;;;16.32;100.00
37238;BME280;23129;49.662;8.448;2023-09-08T05:30:13;100870.88;;;16.34;100.00
37238;BME280;23129;49.662;8.448;2023-09-08T05:32:42;100877.09;;;16.33;100.00
37238;BME280;23129;49.662;8.448;2023-09-08T05:35:11;100877.88;;;16.35;100.00
37238;BME280;23129;49.662;8.448;2023-09-08T05:37:39;100878.72;;;16.35;100.00
37238;BME280;23129;49.662;8.448;2023-09-08T05:40:09;100882.25;;;16.36;100.00
37238;BME280;23129;49.662;8.448;2023-09-08T05:42:39;100893.84;;;16.33;100.00
37238;BME280;23129;49.662;8.448;2023-09-08T05:45:11;100888.66;;;16.30;100.00
37238;BME280;23129;49.662;8.448;2023-09-08T05:47:40;100893.97;;;16.30;100.00
37238;BME280;23129;49.662;8.448;2023-09-08T05:50:10;100894.72;;;16.34;100.00
37238;BME280;23129;49.662;8.448;2023-09-08T05:52:39;100900.72;;;16.37;100.00
37238;BME280;23129;49.662;8.448;2023-09-08T05:55:08;100894.28;;;16.43;100.00
37238;BME280;23129;49.662;8.448;2023-09-08T05:57:38;100903.75;;;16.49;100.00
37238;BME280;23129;49.662;8.448;2023-09-08T06:00:08;100905.31;;;16.53;100.00
37238;BME280;23129;49.662;8.448;2023-09-08T06:02:43;100902.38;;;16.59;100.00
37238;BME280;23129;49.662;8.448;2023-09-08T06:05:14;100894.25;;;16.63;100.00
37238;BME280;23129;49.662;8.448;2023-09-08T06:07:43;100894.03;;;16.68;100.00
37238;BME280;23129;49.662;8.448;2023-09-08T06:10:29;100895.47;;;16.75;100.00
37238;BME280;23129;49.662;8.448;2023-09-08T06:13:00;100893.34;;;16.83;100.00
37238;BME280;23129;49.662;8.448;2023-09-08T06:15:29;100888.59;;;16.90;100.00
37238;BME280;23129;49.662;8.448;2023-09-08T06:17:59;100885.69;;;16.96;100.00
37238;BME280;23129;49.662;8.448;2023-09-08T06:20:28;100888.06;;;17.02;100.00
37238;BME280;23129;49.662;8.448;2023-09-08T06:22:57;100882.47;;;17.08;100.00
37238;BME280;23129;49.662;8.448;2023-09-08T06:25:27;100886.59;;;17.14;100.00
37238;BME280;23129;49.662;8.448;2023-09-08T06:27:56;100881.00;;;17.20;100.00
37238;BME280;23129;49.662;8.448;2023-09-08T06:30:28;100887.72;;;17.27;100.00
37238;BME280;23129;49.662;8.448;2023-09-08T06:32:57;100883.81;;;17.34;100.00
37238;BME280;23129;49.662;8.448;2023-09-08T06:35:27;100893.97;;;17.44;100.00
37238;BME280;23129;49.662;8.448;2023-09-08T06:37:55;100889.31;;;17.49;100.00
37238;BME280;23129;49.662;8.448;2023-09-08T06:40:25;100892.44;;;17.57;100.00
37238;BME280;23129;49.662;8.448;2023-09-08T06:42:54;100886.69;;;17.66;100.00
37238;BME280;23129;49.662;8.448;2023-09-08T06:45:49;100889.91;;;18.08;100.00
37238;BME280;23129;49.662;8.448;2023-09-08T06:48:21;100886.00;;;19.13;100.00
37238;BME280;23129;49.662;8.448;2023-09-08T06:50:53;100879.63;;;20.36;100.00
37238;BME280;23129;49.662;8.448;2023-09-08T06:53:25;100885.56;;;21.53;100.00
37238;BME280;23129;49.662;8.448;2023-09-08T06:55:53;100881.72;;;22.48;100.00
37238;BME280;23129;49.662;8.448;2023-09-08T06:58:22;100872.31;;;23.29;98.52
37238;BME280;23129;49.662;8.448;2023-09-08T07:00:53;100869.44;;;23.91;96.90
37238;BME280;23129;49.662;8.448;2023-09-08T07:03:23;100866.09;;;24.45;95.52
37238;BME280;23129;49.662;8.448;2023-09-08T07:05:54;100871.19;;;24.82;94.79
37238;BME280;23129;49.662;8.448;2023-09-08T07:08:23;100871.78;;;24.97;94.12
37238;BME280;23129;49.662;8.448;2023-09-08T07:10:52;100874.72;;;24.94;95.09
37238;BME280;23129;49.662;8.448;2023-09-08T07:13:22;100877.78;;;24.89;96.04
37238;BME280;23129;49.662;8.448;2023-09-08T07:15:52;100874.88;;;24.81;96.79
37238;BME280;23129;49.662;8.448;2023-09-08T07:18:21;100870.09;;;24.73;97.78
37238;BME280;23129;49.662;8.448;2023-09-08T07:20:50;100873.16;;;24.69;98.09
37238;BME280;23129;49.662;8.448;2023-09-08T07:23:20;100875.25;;;24.65;98.15
37238;BME280;23129;49.662;8.448;2023-09-08T07:25:50;100873.88;;;24.71;97.29
37238;BME280;23129;49.662;8.448;2023-09-08T07:28:22;100877.66;;;24.79;96.13
37238;BME280;23129;49.662;8.448;2023-09-08T07:31:00;100868.13;;;24.98;95.45
37238;BME280;23129;49.662;8.448;2023-09-08T07:33:30;100876.22;;;25.30;93.89
37238;BME280;23129;49.662;8.448;2023-09-08T07:36:04;100867.16;;;25.63;91.62
37238;BME280;23129;49.662;8.448;2023-09-08T07:38:33;100873.38;;;25.96;89.95
37238;BME280;23129;49.662;8.448;2023-09-08T07:41:03;100873.00;;;26.31;88.27
37238;BME280;23129;49.662;8.448;2023-09-08T07:43:32;100874.03;;;26.61;86.87
37238;BME280;23129;49.662;8.448;2023-09-08T07:46:02;100873.84;;;26.83;85.44
37238;BME280;23129;49.662;8.448;2023-09-08T07:48:31;100867.09;;;27.18;84.35
37238;BME280;23129;49.662;8.448;2023-09-08T07:51:01;100878.75;;;27.48;83.08
37238;BME280;23129;49.662;8.448;2023-09-08T07:53:30;100877.91;;;27.76;81.88
37238;BME280;23129;49.662;8.448;2023-09-08T07:55:59;100878.19;;;27.93;80.72
37238;BME280;23129;49.662;8.448;2023-09-08T07:58:29;100875.56;;;28.20;79.12
37238;BME280;23129;49.662;8.448;2023-09-08T08:00:57;100874.03;;;28.55;77.74
37238;BME280;23129;49.662;8.448;2023-09-08T08:03:27;100879.03;;;28.78;76.54
37238;BME280;23129;49.662;8.448;2023-09-08T08:05:57;100883.31;;;29.08;75.51
37238;BME280;23129;49.662;8.448;2023-09-08T08:08:26;100872.28;;;29.37;73.75
37238;BME280;23129;49.662;8.448;2023-09-08T08:10:54;100877.66;;;29.65;72.88
37238;BME280;23129;49.662;8.448;2023-09-08T08:13:23;100878.16;;;29.86;71.46
37238;BME280;23129;49.662;8.448;2023-09-08T08:15:52;100876.56;;;30.01;70.30
37238;BME280;23129;49.662;8.448;2023-09-08T08:18:20;100878.97;;;30.31;69.00
37238;BME280;23129;49.662;8.448;2023-09-08T08:20:50;100874.47;;;30.47;67.64
37238;BME280;23129;49.662;8.448;2023-09-08T08:23:19;100878.69;;;30.76;66.34
37238;BME280;23129;49.662;8.448;2023-09-08T08:25:49;100884.56;;;31.06;65.29
37238;BME280;23129;49.662;8.448;2023-09-08T08:28:19;100875.63;;;31.30;64.01
37238;BME280;23129;49.662;8.448;2023-09-08T08:30:48;100874.47;;;31.49;62.93
37238;BME280;23129;49.662;8.448;2023-09-08T08:33:16;100871.44;;;31.68;61.89
37238;BME280;23129;49.662;8.448;2023-09-08T08:35:50;100872.28;;;31.93;60.53
37238;BME280;23129;49.662;8.448;2023-09-08T08:38:19;100868.38;;;32.04;59.73
37238;BME280;23129;49.662;8.448;2023-09-08T08:40:48;100868.97;;;32.31;58.49
37238;BME280;23129;49.662;8.448;2023-09-08T08:43:17;100871.13;;;32.51;57.32
37238;BME280;23129;49.662;8.448;2023-09-08T08:45:47;100858.00;;;32.71;56.30
37238;BME280;23129;49.662;8.448;2023-09-08T08:48:19;100859.56;;;32.97;54.94
37238;BME280;23129;49.662;8.448;2023-09-08T08:50:51;100861.66;;;33.18;53.99
37238;BME280;23129;49.662;8.448;2023-09-08T08:53:21;100854.59;;;33.32;53.16
37238;BME280;23129;49.662;8.448;2023-09-08T08:55:50;100863.56;;;33.32;52.56
37238;BME280;23129;49.662;8.448;2023-09-08T08:58:21;100865.72;;;33.45;52.04
37238;BME280;23129;49.662;8.448;2023-09-08T09:00:53;100861.78;;;33.71;50.81
37238;BME280;23129;49.662;8.448;2023-09-08T09:03:26;100861.91;;;33.92;49.76
37238;BME280;23129;49.662;8.448;2023-09-08T09:05:59;100854.81;;;34.06;49.06
37238;BME280;23129;49.662;8.448;2023-09-08T09:08:28;100855.75;;;34.28;48.06
37238;BME280;23129;49.662;8.448;2023-09-08T09:10:57;100852.56;;;34.39;47.56
37238;BME280;23129;49.662;8.448;2023-09-08T09:13:26;100862.28;;;34.57;46.74
37238;BME280;23129;49.662;8.448;2023-09-08T09:15:58;100858.28;;;34.74;46.03
37238;BME280;23129;49.662;8.448;2023-09-08T09:18:28;100855.59;;;34.95;45.35
37238;BME280;23129;49.662;8.448;2023-09-08T09:21:01;100862.53;;;35.13;44.81
37238;BME280;23129;49.662;8.448;2023-09-08T09:23:31;100856.09;;;35.42;44.10
37238;BME280;23129;49.662;8.448;2023-09-08T09:26:02;100860.09;;;35.61;43.38
37238;BME280;23129;49.662;8.448;2023-09-08T09:28:32;100856.44;;;35.75;42.71
37238;BME280;23129;49.662;8.448;2023-09-08T09:31:01;100858.19;;;35.89;42.52
37238;BME280;23129;49.662;8.448;2023-09-08T09:33:30;100856.25;;;36.05;41.05
37238;BME280;23129;49.662;8.448;2023-09-08T09:36:01;100855.69;;;36.16;40.91
37238;BME280;23129;49.662;8.448;2023-09-08T09:38:31;100858.09;;;36.32;40.40
37238;BME280;23129;49.662;8.448;2023-09-08T09:41:00;100852.22;;;36.36;40.19
37238;BME280;23129;49.662;8.448;2023-09-08T09:43:29;100851.44;;;36.48;39.81
37238;BME280;23129;49.662;8.448;2023-09-08T09:45:58;100851.16;;;36.71;39.02
37238;BME280;23129;49.662;8.448;2023-09-08T09:48:28;100847.59;;;36.77;38.88
37238;BME280;23129;49.662;8.448;2023-09-08T09:50:56;100838.81;;;36.89;38.29
37238;BME280;23129;49.662;8.448;2023-09-08T09:53:26;100834.38;;;36.94;38.29
37238;BME280;23129;49.662;8.448;2023-09-08T09:55:56;100837.97;;;36.95;38.01
37238;BME280;23129;49.662;8.448;2023-09-08T09:58:25;100843.44;;;36.95;37.60
37238;BME280;23129;49.662;8.448;2023-09-08T10:00:54;100848.31;;;37.06;36.86
37238;BME280;23129;49.662;8.448;2023-09-08T10:03:23;100837.00;;;37.16;36.43
37238;BME280;23129;49.662;8.448;2023-09-08T10:05:55;100836.13;;;37.15;36.37
37238;BME280;23129;49.662;8.448;2023-09-08T10:08:23;100843.31;;;37.16;36.20
37238;BME280;23129;49.662;8.448;2023-09-08T10:10:53;100830.69;;;37.29;35.70
37238;BME280;23129;49.662;8.448;2023-09-08T10:13:29;100825.47;;;37.54;34.97
37238;BME280;23129;49.662;8.448;2023-09-08T10:16:01;100824.59;;;37.80;34.90
37238;BME280;23129;49.662;8.448;2023-09-08T10:18:32;100825.63;;;37.92;34.35
37238;BME280;23129;49.662;8.448;2023-09-08T10:21:04;100824.34;;;38.08;34.15
37238;BME280;23129;49.662;8.448;2023-09-08T10:23:36;100823.72;;;38.12;33.57
37238;BME280;23129;49.662;8.448;2023-09-08T10:26:10;100822.66;;;38.13;34.33
37238;BME280;23129;49.662;8.448;2023-09-08T10:28:39;100825.78;;;38.30;33.57
37238;BME280;23129;49.662;8.448;2023-09-08T10:31:08;100813.31;;;38.41;33.13
37238;BME280;23129;49.662;8.448;2023-09-08T10:33:42;100819.97;;;38.58;32.55
37238;BME280;23129;49.662;8.448;2023-09-08T10:36:12;100812.97;;;38.69;32.45
37238;BME280;23129;49.662;8.448;2023-09-08T10:38:40;100813.38;;;38.73;32.23
37238;BME280;23129;49.662;8.448;2023-09-08T10:41:29;100816.94;;;38.73;32.24
37238;BME280;23129;49.662;8.448;2023-09-08T10:44:03;100817.00;;;38.67;32.23
37238;BME280;23129;49.662;8.448;2023-09-08T10:46:37;100808.31;;;38.70;31.78
37238;BME280;23129;49.662;8.448;2023-09-08T10:49:06;100805.94;;;38.80;31.75
37238;BME280;23129;49.662;8.448;2023-09-08T10:51:37;100811.00;;;38.90;31.54
37238;BME280;23129;49.662;8.448;2023-09-08T10:54:07;100811.72;;;39.03;31.28
37238;BME280;23129;49.662;8.448;2023-09-08T10:56:56;100812.25;;;39.19;31.21
37238;BME280;23129;49.662;8.448;2023-09-08T10:59:28;100812.41;;;39.31;30.87
37238;BME280;23129;49.662;8.448;2023-09-08T11:01:57;100808.56;;;39.38;30.55
37238;BME280;23129;49.662;8.448;2023-09-08T11:04:25;100800.94;;;39.40;30.60
37238;BME280;23129;49.662;8.448;2023-09-08T11:06:57;100804.19;;;39.56;30.10
37238;BME280;23129;49.662;8.448;2023-09-08T11:09:26;100803.78;;;39.77;29.79
37238;BME280;23129;49.662;8.448;2023-09-08T11:11:55;100802.59;;;39.91;29.67
37238;BME280;23129;49.662;8.448;2023-09-08T11:14:26;100797.53;;;40.07;29.30
37238;BME280;23129;49.662;8.448;2023-09-08T11:16:55;100797.72;;;40.12;29.32
37238;BME280;23129;49.662;8.448;2023-09-08T11:19:44;100793.28;;;40.29;29.13
37238;BME280;23129;49.662;8.448;2023-09-08T11:22:13;100790.06;;;40.51;29.02
37238;BME280;23129;49.662;8.448;2023-09-08T11:24:43;100788.19;;;40.45;28.99
37238;BME280;23129;49.662;8.448;2023-09-08T11:27:13;100793.38;;;40.53;29.05
37238;BME280;23129;49.662;8.448;2023-09-08T11:29:42;100791.19;;;40.61;28.82
37238;BME280;23129;49.662;8.448;2023-09-08T11:32:12;100784.94;;;40.84;28.22
37238;BME280;23129;49.662;8.448;2023-09-08T11:34:41;100786.78;;;41.02;27.91
37238;BME280;23129;49.662;8.448;2023-09-08T11:37:10;100786.94;;;41.19;28.13
37238;BME280;23129;49.662;8.448;2023-09-08T11:39:40;100781.34;;;41.38;27.56
37238;BME280;23129;49.662;8.448;2023-09-08T11:42:14;100772.03;;;41.50;27.57
37238;BME280;23129;49.662;8.448;2023-09-08T11:44:42;100774.88;;;41.44;27.71
37238;BME280;23129;49.662;8.448;2023-09-08T11:47:12;100774.06;;;41.55;27.38
37238;BME280;23129;49.662;8.448;2023-09-08T11:49:41;100772.00;;;41.39;27.40
37238;BME280;23129;49.662;8.448;2023-09-08T11:52:11;100768.63;;;41.13;27.81
37238;BME280;23129;49.662;8.448;2023-09-08T11:54:40;100764.06;;;41.07;27.29
37238;BME280;23129;49.662;8.448;2023-09-08T11:57:32;100770.47;;;41.01;27.55
37238;BME280;23129;49.662;8.448;2023-09-08T12:00:01;100756.13;;;40.99;27.17
37238;BME280;23129;49.662;8.448;2023-09-08T12:02:35;100761.03;;;40.97;27.48
37238;BME280;23129;49.662;8.448;2023-09-08T12:05:05;100758.28;;;40.97;27.66
37238;BME280;23129;49.662;8.448;2023-09-08T12:07:34;100751.16;;;41.19;26.98
37238;BME280;23129;49.662;8.448;2023-09-08T12:10:08;100752.22;;;41.18;26.69
37238;BME280;23129;49.662;8.448;2023-09-08T12:12:44;100750.69;;;41.34;26.71
37238;BME280;23129;49.662;8.448;2023-09-08T12:15:30;100749.16;;;41.62;26.62
37238;BME280;23129;49.662;8.448;2023-09-08T12:18:00;100747.81;;;41.76;26.61
37238;BME280;23129;49.662;8.448;2023-09-08T12:20:31;100747.47;;;41.72;26.25
37238;BME280;23129;49.662;8.448;2023-09-08T12:23:01;100746.50;;;41.55;26.21
37238;BME280;23129;49.662;8.448;2023-09-08T12:25:30;100752.50;;;41.64;26.48
37238;BME280;23129;49.662;8.448;2023-09-08T12:28:02;100740.97;;;41.79;25.98
37238;BME280;23129;49.662;8.448;2023-09-08T12:30:32;100739.28;;;42.01;26.13
37238;BME280;23129;49.662;8.448;2023-09-08T12:33:02;100739.97;;;42.08;25.82
37238;BME280;23129;49.662;8.448;2023-09-08T12:35:31;100740.25;;;42.07;26.02
37238;BME280;23129;49.662;8.448;2023-09-08T12:38:02;100735.38;;;42.26;25.61
37238;BME280;23129;49.662;8.448;2023-09-08T12:40:33;100741.00;;;42.59;25.06
37238;BME280;23129;49.662;8.448;2023-09-08T12:43:05;100743.66;;;42.83;24.95
37238;BME280;23129;49.662;8.448;2023-09-08T12:45:53;100738.22;;;42.88;25.07
37238;BME280;23129;49.662;8.448;2023-09-08T12:48:23;100732.22;;;42.91;24.73
37238;BME280;23129;49.662;8.448;2023-09-08T12:50:53;100732.88;;;42.98;24.61
37238;BME280;23129;49.662;8.448;2023-09-08T12:53:22;100739.41;;;43.09;24.28
37238;BME280;23129;49.662;8.448;2023-09-08T12:55:51;100727.09;;;43.34;24.21
37238;BME280;23129;49.662;8.448;2023-09-08T12:58:22;100727.31;;;43.66;24.13
37238;BME280;23129;49.662;8.448;2023-09-08T13:00:50;100729.69;;;43.40;23.95